Pagrindinis puslapis
METAR-TAF:

METAR-TAF

Oro uostai :

Čorlu, Turkija

platuma: 41-08N, ilguma: 027-55E, Aukštis: 173 m

Dabartinis oras

Ataskaita buvo paskelbta 23 minutes, ne 06:50 UTC
Vėjas 3 kt nuo kintamojo kryptimis
Temperatūra 21°C
Drėgmė 64%
Slėgis 1011 hPa
Matomumas 10 km arba daugiau
nėra debesų žemiau 1500 m ir nėra kamuolinių lietaus debesų

METAR: LTBU 140650Z VRB03KT CAVOK 21/14 Q1011

Laikas: 10:13 (07:13 UTC)

Prognozė

Ataskaita buvo paskelbta 2 valandos ir 33 minutes, ne 04:40 UTC
Prognozė galioja nuo 14 metu 06 UTC su 15 metu 06 UTC
Vėjas 2 kt nuo kintamojo kryptimis
Matomumas 10 km arba daugiau
nėra debesų žemiau 1500 m ir nėra kamuolinių lietaus debesų
Tapsmas
nuo 14 metu 06 UTC su 14 metu 09 UTC
Vėjas 12 kt iš Pietų/Pietvakarių
Išsisklaidę debesys ne aukštis 3000 ft
Tapsmas
nuo 14 metu 14 UTC su 14 metu 17 UTC
Vėjas 2 kt nuo kintamojo kryptimis
Matomumas 10 km arba daugiau
nėra debesų žemiau 1500 m ir nėra kamuolinių lietaus debesų

TAF: LTBU 140440Z 1406/1506 VRB02KT CAVOK BECMG 1406/1409 20012KT SCT030 BECMG 1414/1417 VRB02KT CAVOK

Orai ataskaitas ir orų prognozės (METAR, TAF).

turimą stotys yra geltonos ir raudonos taškus žemėlapyje.

Perkelti pele per norėdami pamatyti stoties vardą.

Tada spustelėkite, norėdami matyti oro stebėjimo ir prognozės.

Norėdami pakeisti žemėlapį: spustelėkite ant žalios mygtukų su juodo kryžiaus žemyn,; žalią mygtuką su brūkšneliu, jei norite nutolinti; arba žalių rodyklių gretimoms žemėlapius.


METAR-TAF: